CheckWX is a tool to help pilots better visualize weather data.  It is not intended as a substitute for an official pre-flight weather briefing.

03:31:39 UTC

LIBA METAR
Amendola Airport
Foggia, Italy
Current

2 hours ago

LIBA 220155Z 29006KT CAVOK 20/17 Q1019 RMK SKC VIS MIN 9999 WIND THR11 27005KT WIND THR29 /////KT BLU
Observed
Jul-22 @ 01:55 UTC
Wind
  • 290° at 6 KTS
Visibility
10,000+ meters
Flight Rules
VFR
Cloud Levels
  • Clear skies
Temperature
20°C / 68°F
Dewpoint
17°C / 63°F
Humidity
83%
Altimeter
30.09" Hg
Pressure
1018.92 hPa
Previous

3 hours ago

LIBA 220055Z 25005KT CAVOK 20/19 Q1019 RMK SKC VIS MIN 9999 WIND THR11 27005KT WIND THR29 /////KT BLU
Observed
Jul-22 @ 00:55 UTC
Wind
  • 250° at 5 KTS
Visibility
10,000+ meters
Flight Rules
VFR
Cloud Levels
  • Clear skies
Temperature
20°C / 68°F
Dewpoint
19°C / 66°F
Humidity
94%
Altimeter
30.09" Hg
Pressure
1018.92 hPa
Previous

4 hours ago

LIBA 212355Z 31002KT CAVOK 22/18 Q1019 RMK SKC VIS MIN 9999 WIND THR11 27002KT WIND THR29 /////KT BLU
Observed
Jul-21 @ 23:55 UTC
Wind
  • 310° at 2 KTS
Visibility
10,000+ meters
Flight Rules
VFR
Cloud Levels
  • Clear skies
Temperature
22°C / 72°F
Dewpoint
18°C / 64°F
Humidity
78%
Altimeter
30.09" Hg
Pressure
1018.92 hPa